sensor_id;sensor_type;location;lat;lon;timestamp;P1;durP1;ratioP1;P2;durP2;ratioP2
74291;SDS011;62687;55.738;37.516;2022-09-09T00:00:26;3.45;;;1.40;;
74291;SDS011;62687;55.738;37.516;2022-09-09T00:03:32;5.93;;;1.27;;
74291;SDS011;62687;55.738;37.516;2022-09-09T00:06:30;5.18;;;1.48;;
74291;SDS011;62687;55.738;37.516;2022-09-09T00:09:19;3.38;;;1.30;;
74291;SDS011;62687;55.738;37.516;2022-09-09T00:12:13;4.20;;;1.20;;
74291;SDS011;62687;55.738;37.516;2022-09-09T00:23:14;5.03;;;1.80;;
74291;SDS011;62687;55.738;37.516;2022-09-09T00:32:17;4.22;;;1.50;;
74291;SDS011;62687;55.738;37.516;2022-09-09T00:35:45;5.40;;;1.58;;
74291;SDS011;62687;55.738;37.516;2022-09-09T00:38:14;6.72;;;1.70;;
74291;SDS011;62687;55.738;37.516;2022-09-09T00:50:03;5.35;;;1.42;;
74291;SDS011;62687;55.738;37.516;2022-09-09T00:56:14;5.55;;;1.80;;
74291;SDS011;62687;55.738;37.516;2022-09-09T01:01:55;5.25;;;1.40;;
74291;SDS011;62687;55.738;37.516;2022-09-09T01:04:39;7.00;;;1.60;;
74291;SDS011;62687;55.738;37.516;2022-09-09T01:07:26;5.38;;;1.65;;
74291;SDS011;62687;55.738;37.516;2022-09-09T01:13:34;7.22;;;1.77;;
74291;SDS011;62687;55.738;37.516;2022-09-09T01:16:20;7.72;;;1.77;;
74291;SDS011;62687;55.738;37.516;2022-09-09T01:19:04;5.20;;;1.40;;
74291;SDS011;62687;55.738;37.516;2022-09-09T01:28:05;5.97;;;1.52;;
74291;SDS011;62687;55.738;37.516;2022-09-09T01:30:54;5.38;;;1.75;;
74291;SDS011;62687;55.738;37.516;2022-09-09T01:33:40;4.43;;;1.80;;
74291;SDS011;62687;55.738;37.516;2022-09-09T01:36:26;4.30;;;1.55;;
74291;SDS011;62687;55.738;37.516;2022-09-09T01:39:17;8.55;;;1.63;;
74291;SDS011;62687;55.738;37.516;2022-09-09T01:42:02;5.15;;;1.83;;
74291;SDS011;62687;55.738;37.516;2022-09-09T01:44:48;7.22;;;1.88;;
74291;SDS011;62687;55.738;37.516;2022-09-09T01:47:32;6.75;;;1.70;;
74291;SDS011;62687;55.738;37.516;2022-09-09T01:50:16;6.50;;;1.80;;
74291;SDS011;62687;55.738;37.516;2022-09-09T01:53:01;6.45;;;2.30;;
74291;SDS011;62687;55.738;37.516;2022-09-09T01:55:59;4.70;;;1.80;;
74291;SDS011;62687;55.738;37.516;2022-09-09T01:58:57;5.03;;;1.90;;
74291;SDS011;62687;55.738;37.516;2022-09-09T02:08:24;8.05;;;1.73;;
74291;SDS011;62687;55.738;37.516;2022-09-09T02:11:17;5.55;;;1.52;;
74291;SDS011;62687;55.738;37.516;2022-09-09T02:14:08;6.13;;;1.90;;
74291;SDS011;62687;55.738;37.516;2022-09-09T02:17:03;9.23;;;1.75;;
74291;SDS011;62687;55.738;37.516;2022-09-09T02:19:55;6.40;;;1.58;;
74291;SDS011;62687;55.738;37.516;2022-09-09T02:22:46;3.25;;;1.70;;
74291;SDS011;62687;55.738;37.516;2022-09-09T02:25:34;3.97;;;1.50;;
74291;SDS011;62687;55.738;37.516;2022-09-09T02:28:20;5.72;;;1.40;;
74291;SDS011;62687;55.738;37.516;2022-09-09T02:31:07;5.60;;;1.85;;
74291;SDS011;62687;55.738;37.516;2022-09-09T02:33:52;3.75;;;1.60;;
74291;SDS011;62687;55.738;37.516;2022-09-09T02:36:41;3.30;;;1.50;;
74291;SDS011;62687;55.738;37.516;2022-09-09T02:39:27;2.88;;;1.35;;
74291;SDS011;62687;55.738;37.516;2022-09-09T02:42:11;5.80;;;2.00;;
74291;SDS011;62687;55.738;37.516;2022-09-09T02:44:56;5.00;;;1.73;;
74291;SDS011;62687;55.738;37.516;2022-09-09T02:48:16;4.63;;;1.40;;
74291;SDS011;62687;55.738;37.516;2022-09-09T02:51:08;3.70;;;1.52;;
74291;SDS011;62687;55.738;37.516;2022-09-09T02:57:19;5.70;;;1.40;;
74291;SDS011;62687;55.738;37.516;2022-09-09T03:00:07;3.35;;;1.70;;
74291;SDS011;62687;55.738;37.516;2022-09-09T03:02:52;4.07;;;1.92;;
74291;SDS011;62687;55.738;37.516;2022-09-09T03:05:37;3.70;;;1.83;;
74291;SDS011;62687;55.738;37.516;2022-09-09T03:08:22;5.43;;;1.50;;
74291;SDS011;62687;55.738;37.516;2022-09-09T03:11:12;8.98;;;1.75;;
74291;SDS011;62687;55.738;37.516;2022-09-09T03:13:57;5.82;;;1.90;;
74291;SDS011;62687;55.738;37.516;2022-09-09T03:16:41;5.25;;;1.80;;
74291;SDS011;62687;55.738;37.516;2022-09-09T03:19:26;5.47;;;1.90;;
74291;SDS011;62687;55.738;37.516;2022-09-09T03:22:11;3.58;;;1.77;;
74291;SDS011;62687;55.738;37.516;2022-09-09T03:24:56;4.38;;;1.75;;
74291;SDS011;62687;55.738;37.516;2022-09-09T03:27:41;8.50;;;1.92;;
74291;SDS011;62687;55.738;37.516;2022-09-09T03:30:26;8.10;;;1.67;;
74291;SDS011;62687;55.738;37.516;2022-09-09T03:35:54;8.73;;;2.45;;
74291;SDS011;62687;55.738;37.516;2022-09-09T03:38:40;7.60;;;1.63;;
74291;SDS011;62687;55.738;37.516;2022-09-09T03:41:24;3.00;;;1.70;;
74291;SDS011;62687;55.738;37.516;2022-09-09T03:44:10;7.03;;;1.55;;
74291;SDS011;62687;55.738;37.516;2022-09-09T03:46:54;7.15;;;1.70;;
74291;SDS011;62687;55.738;37.516;2022-09-09T03:49:38;6.15;;;1.90;;
74291;SDS011;62687;55.738;37.516;2022-09-09T03:52:22;7.70;;;1.83;;
74291;SDS011;62687;55.738;37.516;2022-09-09T03:55:09;6.47;;;1.90;;
74291;SDS011;62687;55.738;37.516;2022-09-09T03:57:53;5.25;;;1.60;;
74291;SDS011;62687;55.738;37.516;2022-09-09T04:00:37;5.30;;;1.63;;
74291;SDS011;62687;55.738;37.516;2022-09-09T04:03:27;4.00;;;1.80;;
74291;SDS011;62687;55.738;37.516;2022-09-09T04:06:12;6.07;;;1.70;;
74291;SDS011;62687;55.738;37.516;2022-09-09T04:08:58;6.53;;;2.00;;
74291;SDS011;62687;55.738;37.516;2022-09-09T04:11:42;5.65;;;1.80;;
74291;SDS011;62687;55.738;37.516;2022-09-09T04:14:26;5.55;;;1.77;;
74291;SDS011;62687;55.738;37.516;2022-09-09T04:17:12;3.58;;;1.90;;
74291;SDS011;62687;55.738;37.516;2022-09-09T04:19:56;4.40;;;1.52;;
74291;SDS011;62687;55.738;37.516;2022-09-09T04:22:41;6.15;;;1.92;;
74291;SDS011;62687;55.738;37.516;2022-09-09T04:25:25;6.47;;;1.50;;
74291;SDS011;62687;55.738;37.516;2022-09-09T04:28:09;11.50;;;1.80;;
74291;SDS011;62687;55.738;37.516;2022-09-09T04:30:53;4.35;;;1.50;;
74291;SDS011;62687;55.738;37.516;2022-09-09T04:33:37;5.93;;;2.15;;
74291;SDS011;62687;55.738;37.516;2022-09-09T04:39:07;8.60;;;2.17;;
74291;SDS011;62687;55.738;37.516;2022-09-09T04:41:51;4.90;;;2.05;;
74291;SDS011;62687;55.738;37.516;2022-09-09T04:44:35;6.15;;;2.03;;
74291;SDS011;62687;55.738;37.516;2022-09-09T04:47:20;6.95;;;2.33;;
74291;SDS011;62687;55.738;37.516;2022-09-09T04:50:04;4.90;;;2.33;;
74291;SDS011;62687;55.738;37.516;2022-09-09T04:52:49;4.47;;;1.90;;
74291;SDS011;62687;55.738;37.516;2022-09-09T04:55:33;5.40;;;1.90;;
74291;SDS011;62687;55.738;37.516;2022-09-09T04:58:18;8.18;;;2.15;;
74291;SDS011;62687;55.738;37.516;2022-09-09T05:03:57;6.35;;;2.28;;
74291;SDS011;62687;55.738;37.516;2022-09-09T05:06:41;6.65;;;1.90;;
74291;SDS011;62687;55.738;37.516;2022-09-09T05:09:25;5.57;;;1.77;;
74291;SDS011;62687;55.738;37.516;2022-09-09T05:12:09;4.07;;;1.83;;
74291;SDS011;62687;55.738;37.516;2022-09-09T05:14:54;4.18;;;1.75;;
74291;SDS011;62687;55.738;37.516;2022-09-09T05:17:38;7.93;;;1.63;;
74291;SDS011;62687;55.738;37.516;2022-09-09T05:20:23;7.00;;;1.83;;
74291;SDS011;62687;55.738;37.516;2022-09-09T05:23:07;2.83;;;1.33;;
74291;SDS011;62687;55.738;37.516;2022-09-09T05:25:55;7.38;;;1.58;;
74291;SDS011;62687;55.738;37.516;2022-09-09T05:28:40;5.93;;;1.92;;
74291;SDS011;62687;55.738;37.516;2022-09-09T05:31:24;3.20;;;1.42;;
74291;SDS011;62687;55.738;37.516;2022-09-09T05:34:11;6.70;;;1.80;;
74291;SDS011;62687;55.738;37.516;2022-09-09T05:36:57;4.53;;;1.73;;
74291;SDS011;62687;55.738;37.516;2022-09-09T05:39:41;8.07;;;2.22;;
74291;SDS011;62687;55.738;37.516;2022-09-09T05:42:29;8.13;;;1.80;;
74291;SDS011;62687;55.738;37.516;2022-09-09T05:45:14;5.20;;;1.73;;
74291;SDS011;62687;55.738;37.516;2022-09-09T05:47:58;6.55;;;1.60;;
74291;SDS011;62687;55.738;37.516;2022-09-09T05:50:54;8.60;;;1.60;;
74291;SDS011;62687;55.738;37.516;2022-09-09T05:53:38;7.22;;;1.92;;
74291;SDS011;62687;55.738;37.516;2022-09-09T05:56:23;7.38;;;1.83;;
74291;SDS011;62687;55.738;37.516;2022-09-09T05:59:08;8.50;;;2.20;;
74291;SDS011;62687;55.738;37.516;2022-09-09T06:01:53;4.95;;;1.80;;
74291;SDS011;62687;55.738;37.516;2022-09-09T06:04:37;9.18;;;1.80;;
74291;SDS011;62687;55.738;37.516;2022-09-09T06:07:22;11.77;;;1.67;;
74291;SDS011;62687;55.738;37.516;2022-09-09T06:10:06;8.00;;;1.58;;
74291;SDS011;62687;55.738;37.516;2022-09-09T06:12:52;9.25;;;2.13;;
74291;SDS011;62687;55.738;37.516;2022-09-09T06:15:37;7.03;;;1.83;;
74291;SDS011;62687;55.738;37.516;2022-09-09T06:18:21;6.97;;;2.10;;
74291;SDS011;62687;55.738;37.516;2022-09-09T06:21:05;5.78;;;1.67;;
74291;SDS011;62687;55.738;37.516;2022-09-09T06:23:53;5.30;;;1.80;;
74291;SDS011;62687;55.738;37.516;2022-09-09T06:26:37;5.35;;;1.23;;
74291;SDS011;62687;55.738;37.516;2022-09-09T06:29:25;6.68;;;1.30;;
74291;SDS011;62687;55.738;37.516;2022-09-09T06:32:09;6.30;;;2.10;;
74291;SDS011;62687;55.738;37.516;2022-09-09T06:34:53;5.88;;;1.70;;
74291;SDS011;62687;55.738;37.516;2022-09-09T06:37:37;5.38;;;1.10;;
74291;SDS011;62687;55.738;37.516;2022-09-09T06:40:22;4.15;;;1.40;;
74291;SDS011;62687;55.738;37.516;2022-09-09T06:43:06;8.27;;;3.70;;
74291;SDS011;62687;55.738;37.516;2022-09-09T06:48:41;3.85;;;1.80;;
74291;SDS011;62687;55.738;37.516;2022-09-09T06:51:32;10.40;;;2.65;;
74291;SDS011;62687;55.738;37.516;2022-09-09T06:54:18;6.65;;;1.30;;
74291;SDS011;62687;55.738;37.516;2022-09-09T06:59:47;5.35;;;1.10;;
74291;SDS011;62687;55.738;37.516;2022-09-09T07:02:31;4.90;;;0.80;;
74291;SDS011;62687;55.738;37.516;2022-09-09T07:05:16;4.75;;;2.05;;
74291;SDS011;62687;55.738;37.516;2022-09-09T07:08:00;5.03;;;1.17;;
74291;SDS011;62687;55.738;37.516;2022-09-09T07:10:46;3.17;;;0.88;;
74291;SDS011;62687;55.738;37.516;2022-09-09T07:13:31;6.18;;;2.13;;
74291;SDS011;62687;55.738;37.516;2022-09-09T07:16:16;9.13;;;1.30;;
74291;SDS011;62687;55.738;37.516;2022-09-09T07:19:02;6.82;;;2.80;;
74291;SDS011;62687;55.738;37.516;2022-09-09T07:21:47;26.58;;;5.07;;
74291;SDS011;62687;55.738;37.516;2022-09-09T07:24:31;10.50;;;3.42;;
74291;SDS011;62687;55.738;37.516;2022-09-09T07:27:15;9.35;;;1.70;;
74291;SDS011;62687;55.738;37.516;2022-09-09T07:30:00;8.10;;;1.70;;
74291;SDS011;62687;55.738;37.516;2022-09-09T07:35:28;8.07;;;2.60;;
74291;SDS011;62687;55.738;37.516;2022-09-09T07:38:12;4.47;;;0.98;;
74291;SDS011;62687;55.738;37.516;2022-09-09T07:41:07;6.80;;;1.70;;
74291;SDS011;62687;55.738;37.516;2022-09-09T07:43:55;6.47;;;1.75;;
74291;SDS011;62687;55.738;37.516;2022-09-09T07:46:40;6.50;;;1.45;;
74291;SDS011;62687;55.738;37.516;2022-09-09T07:49:24;5.60;;;1.27;;
74291;SDS011;62687;55.738;37.516;2022-09-09T07:52:09;3.92;;;1.05;;
74291;SDS011;62687;55.738;37.516;2022-09-09T07:54:54;5.47;;;1.10;;
74291;SDS011;62687;55.738;37.516;2022-09-09T07:57:39;7.65;;;1.15;;
74291;SDS011;62687;55.738;37.516;2022-09-09T08:00:23;3.40;;;1.17;;
74291;SDS011;62687;55.738;37.516;2022-09-09T08:03:07;4.90;;;1.38;;
74291;SDS011;62687;55.738;37.516;2022-09-09T08:05:51;1.80;;;0.73;;
74291;SDS011;62687;55.738;37.516;2022-09-09T08:08:36;4.15;;;1.10;;
74291;SDS011;62687;55.738;37.516;2022-09-09T08:11:20;3.13;;;1.08;;
74291;SDS011;62687;55.738;37.516;2022-09-09T08:14:07;7.60;;;1.27;;
74291;SDS011;62687;55.738;37.516;2022-09-09T08:16:53;5.95;;;1.10;;
74291;SDS011;62687;55.738;37.516;2022-09-09T08:19:37;4.55;;;1.40;;
74291;SDS011;62687;55.738;37.516;2022-09-09T08:22:22;2.00;;;0.90;;
74291;SDS011;62687;55.738;37.516;2022-09-09T08:25:08;5.60;;;1.83;;
74291;SDS011;62687;55.738;37.516;2022-09-09T08:27:53;7.25;;;1.15;;
74291;SDS011;62687;55.738;37.516;2022-09-09T08:30:38;5.63;;;1.17;;
74291;SDS011;62687;55.738;37.516;2022-09-09T08:33:22;5.13;;;1.42;;
74291;SDS011;62687;55.738;37.516;2022-09-09T08:36:08;3.92;;;1.60;;
74291;SDS011;62687;55.738;37.516;2022-09-09T08:38:54;3.60;;;0.70;;
74291;SDS011;62687;55.738;37.516;2022-09-09T08:51:11;3.83;;;1.27;;
74291;SDS011;62687;55.738;37.516;2022-09-09T08:53:57;3.63;;;0.50;;
74291;SDS011;62687;55.738;37.516;2022-09-09T08:56:45;4.35;;;0.80;;
74291;SDS011;62687;55.738;37.516;2022-09-09T08:59:30;2.53;;;1.00;;
74291;SDS011;62687;55.738;37.516;2022-09-09T09:02:19;3.17;;;0.70;;
74291;SDS011;62687;55.738;37.516;2022-09-09T09:05:23;3.22;;;0.90;;
74291;SDS011;62687;55.738;37.516;2022-09-09T09:11:12;2.95;;;0.85;;
74291;SDS011;62687;55.738;37.516;2022-09-09T09:13:58;3.22;;;0.52;;
74291;SDS011;62687;55.738;37.516;2022-09-09T09:19:58;3.30;;;0.68;;
74291;SDS011;62687;55.738;37.516;2022-09-09T09:25:35;1.50;;;0.57;;
74291;SDS011;62687;55.738;37.516;2022-09-09T09:28:24;2.28;;;0.63;;
74291;SDS011;62687;55.738;37.516;2022-09-09T09:31:10;3.13;;;0.80;;
74291;SDS011;62687;55.738;37.516;2022-09-09T09:33:55;4.43;;;1.17;;
74291;SDS011;62687;55.738;37.516;2022-09-09T09:36:45;1.88;;;0.60;;
74291;SDS011;62687;55.738;37.516;2022-09-09T09:39:36;4.05;;;0.88;;
74291;SDS011;62687;55.738;37.516;2022-09-09T09:42:23;3.97;;;1.15;;
74291;SDS011;62687;55.738;37.516;2022-09-09T09:45:15;2.42;;;0.75;;
74291;SDS011;62687;55.738;37.516;2022-09-09T09:48:05;3.25;;;0.80;;
74291;SDS011;62687;55.738;37.516;2022-09-09T09:53:37;2.80;;;0.60;;
74291;SDS011;62687;55.738;37.516;2022-09-09T09:56:26;4.03;;;0.60;;
74291;SDS011;62687;55.738;37.516;2022-09-09T09:59:23;5.03;;;1.38;;
74291;SDS011;62687;55.738;37.516;2022-09-09T10:02:19;2.75;;;0.57;;
74291;SDS011;62687;55.738;37.516;2022-09-09T10:08:10;7.32;;;1.27;;
74291;SDS011;62687;55.738;37.516;2022-09-09T10:17:06;3.33;;;1.20;;
74291;SDS011;62687;55.738;37.516;2022-09-09T10:22:57;3.88;;;0.82;;
74291;SDS011;62687;55.738;37.516;2022-09-09T10:31:54;2.80;;;0.75;;
74291;SDS011;62687;55.738;37.516;2022-09-09T10:34:58;2.33;;;1.13;;
74291;SDS011;62687;55.738;37.516;2022-09-09T10:44:38;3.05;;;0.98;;
74291;SDS011;62687;55.738;37.516;2022-09-09T10:50:46;4.05;;;1.45;;
74291;SDS011;62687;55.738;37.516;2022-09-09T10:56:51;3.47;;;1.40;;
74291;SDS011;62687;55.738;37.516;2022-09-09T10:59:42;7.20;;;1.77;;
74291;SDS011;62687;55.738;37.516;2022-09-09T11:02:31;5.53;;;1.40;;
74291;SDS011;62687;55.738;37.516;2022-09-09T11:08:28;3.58;;;1.38;;
74291;SDS011;62687;55.738;37.516;2022-09-09T11:14:25;2.83;;;1.00;;
74291;SDS011;62687;55.738;37.516;2022-09-09T11:17:36;2.60;;;0.82;;
74291;SDS011;62687;55.738;37.516;2022-09-09T11:20:30;5.25;;;1.00;;
74291;SDS011;62687;55.738;37.516;2022-09-09T11:23:17;7.85;;;0.90;;
74291;SDS011;62687;55.738;37.516;2022-09-09T11:38:46;2.13;;;0.70;;
74291;SDS011;62687;55.738;37.516;2022-09-09T11:41:36;2.78;;;1.17;;
74291;SDS011;62687;55.738;37.516;2022-09-09T11:44:26;2.92;;;1.20;;
74291;SDS011;62687;55.738;37.516;2022-09-09T11:49:49;7.35;;;1.13;;
74291;SDS011;62687;55.738;37.516;2022-09-09T11:58:15;2.80;;;0.80;;
74291;SDS011;62687;55.738;37.516;2022-09-09T12:01:01;5.50;;;1.50;;
74291;SDS011;62687;55.738;37.516;2022-09-09T12:04:04;2.95;;;1.30;;
74291;SDS011;62687;55.738;37.516;2022-09-09T12:12:37;7.72;;;1.58;;
74291;SDS011;62687;55.738;37.516;2022-09-09T12:15:26;3.05;;;1.40;;
74291;SDS011;62687;55.738;37.516;2022-09-09T12:23:57;7.57;;;2.00;;
74291;SDS011;62687;55.738;37.516;2022-09-09T12:26:52;6.88;;;1.25;;
74291;SDS011;62687;55.738;37.516;2022-09-09T12:30:03;6.07;;;0.95;;
74291;SDS011;62687;55.738;37.516;2022-09-09T12:33:00;2.53;;;0.80;;
74291;SDS011;62687;55.738;37.516;2022-09-09T12:35:55;2.20;;;1.40;;
74291;SDS011;62687;55.738;37.516;2022-09-09T12:38:42;5.85;;;1.77;;
74291;SDS011;62687;55.738;37.516;2022-09-09T12:41:27;4.30;;;1.20;;
74291;SDS011;62687;55.738;37.516;2022-09-09T12:44:12;6.55;;;1.80;;
74291;SDS011;62687;55.738;37.516;2022-09-09T12:46:58;7.95;;;1.70;;
74291;SDS011;62687;55.738;37.516;2022-09-09T12:49:46;6.45;;;2.72;;
74291;SDS011;62687;55.738;37.516;2022-09-09T12:52:32;2.63;;;0.90;;
74291;SDS011;62687;55.738;37.516;2022-09-09T12:55:21;4.28;;;1.13;;
74291;SDS011;62687;55.738;37.516;2022-09-09T12:58:11;5.07;;;1.10;;
74291;SDS011;62687;55.738;37.516;2022-09-09T13:00:59;5.90;;;0.95;;
74291;SDS011;62687;55.738;37.516;2022-09-09T13:03:44;6.63;;;1.20;;
74291;SDS011;62687;55.738;37.516;2022-09-09T13:06:29;6.85;;;3.30;;
74291;SDS011;62687;55.738;37.516;2022-09-09T13:09:15;4.18;;;1.58;;
74291;SDS011;62687;55.738;37.516;2022-09-09T13:11:59;5.90;;;1.33;;
74291;SDS011;62687;55.738;37.516;2022-09-09T13:14:44;5.75;;;1.63;;
74291;SDS011;62687;55.738;37.516;2022-09-09T13:17:32;2.55;;;0.60;;
74291;SDS011;62687;55.738;37.516;2022-09-09T13:20:17;3.63;;;1.10;;
74291;SDS011;62687;55.738;37.516;2022-09-09T13:23:03;6.93;;;1.30;;
74291;SDS011;62687;55.738;37.516;2022-09-09T13:25:54;4.88;;;1.00;;
74291;SDS011;62687;55.738;37.516;2022-09-09T13:28:40;2.45;;;0.90;;
74291;SDS011;62687;55.738;37.516;2022-09-09T13:34:22;3.03;;;0.82;;
74291;SDS011;62687;55.738;37.516;2022-09-09T13:37:20;6.78;;;1.00;;
74291;SDS011;62687;55.738;37.516;2022-09-09T13:40:18;2.70;;;0.57;;
74291;SDS011;62687;55.738;37.516;2022-09-09T13:43:05;4.13;;;0.77;;
74291;SDS011;62687;55.738;37.516;2022-09-09T13:46:00;2.42;;;0.55;;
74291;SDS011;62687;55.738;37.516;2022-09-09T13:48:57;1.70;;;0.77;;
74291;SDS011;62687;55.738;37.516;2022-09-09T13:51:44;5.45;;;0.90;;
74291;SDS011;62687;55.738;37.516;2022-09-09T13:54:30;10.02;;;0.90;;
74291;SDS011;62687;55.738;37.516;2022-09-09T13:57:18;2.70;;;0.75;;
74291;SDS011;62687;55.738;37.516;2022-09-09T14:00:05;6.13;;;1.35;;
74291;SDS011;62687;55.738;37.516;2022-09-09T14:02:53;4.82;;;1.20;;
74291;SDS011;62687;55.738;37.516;2022-09-09T14:05:39;13.82;;;1.27;;
74291;SDS011;62687;55.738;37.516;2022-09-09T14:08:24;4.40;;;1.60;;
74291;SDS011;62687;55.738;37.516;2022-09-09T14:11:10;4.28;;;1.27;;
74291;SDS011;62687;55.738;37.516;2022-09-09T14:13:56;5.70;;;1.85;;
74291;SDS011;62687;55.738;37.516;2022-09-09T14:16:40;8.57;;;2.00;;
74291;SDS011;62687;55.738;37.516;2022-09-09T14:19:25;8.68;;;1.85;;
74291;SDS011;62687;55.738;37.516;2022-09-09T14:22:09;5.53;;;2.05;;
74291;SDS011;62687;55.738;37.516;2022-09-09T14:24:56;5.20;;;1.75;;
74291;SDS011;62687;55.738;37.516;2022-09-09T14:27:41;5.32;;;2.10;;
74291;SDS011;62687;55.738;37.516;2022-09-09T14:30:25;9.25;;;1.98;;
74291;SDS011;62687;55.738;37.516;2022-09-09T14:33:11;4.30;;;1.40;;
74291;SDS011;62687;55.738;37.516;2022-09-09T14:35:57;7.55;;;1.65;;
74291;SDS011;62687;55.738;37.516;2022-09-09T14:38:45;6.03;;;1.77;;
74291;SDS011;62687;55.738;37.516;2022-09-09T14:41:30;5.00;;;1.80;;
74291;SDS011;62687;55.738;37.516;2022-09-09T14:44:15;6.20;;;2.28;;
74291;SDS011;62687;55.738;37.516;2022-09-09T14:49:43;6.82;;;2.35;;
74291;SDS011;62687;55.738;37.516;2022-09-09T14:52:29;5.40;;;1.90;;
74291;SDS011;62687;55.738;37.516;2022-09-09T14:55:16;2.67;;;1.25;;
74291;SDS011;62687;55.738;37.516;2022-09-09T14:58:00;7.03;;;1.77;;
74291;SDS011;62687;55.738;37.516;2022-09-09T15:00:44;8.15;;;1.88;;
74291;SDS011;62687;55.738;37.516;2022-09-09T15:03:29;6.00;;;1.20;;
74291;SDS011;62687;55.738;37.516;2022-09-09T15:06:13;6.28;;;1.65;;
74291;SDS011;62687;55.738;37.516;2022-09-09T15:08:58;6.07;;;1.45;;
74291;SDS011;62687;55.738;37.516;2022-09-09T15:11:44;3.65;;;1.27;;
74291;SDS011;62687;55.738;37.516;2022-09-09T15:14:28;7.95;;;1.50;;
74291;SDS011;62687;55.738;37.516;2022-09-09T15:17:12;6.78;;;1.17;;
74291;SDS011;62687;55.738;37.516;2022-09-09T15:19:56;4.75;;;0.90;;
74291;SDS011;62687;55.738;37.516;2022-09-09T15:22:41;7.40;;;1.67;;
74291;SDS011;62687;55.738;37.516;2022-09-09T15:25:25;4.30;;;1.00;;
74291;SDS011;62687;55.738;37.516;2022-09-09T15:28:10;6.18;;;1.08;;
74291;SDS011;62687;55.738;37.516;2022-09-09T15:30:54;3.85;;;1.10;;
74291;SDS011;62687;55.738;37.516;2022-09-09T15:36:24;4.55;;;1.45;;
74291;SDS011;62687;55.738;37.516;2022-09-09T15:39:10;10.90;;;1.80;;
74291;SDS011;62687;55.738;37.516;2022-09-09T15:41:59;3.72;;;1.30;;
74291;SDS011;62687;55.738;37.516;2022-09-09T15:44:44;5.15;;;1.00;;
74291;SDS011;62687;55.738;37.516;2022-09-09T15:47:28;4.90;;;1.10;;
74291;SDS011;62687;55.738;37.516;2022-09-09T15:50:12;4.22;;;1.20;;
74291;SDS011;62687;55.738;37.516;2022-09-09T15:52:56;6.80;;;1.20;;
74291;SDS011;62687;55.738;37.516;2022-09-09T15:55:40;6.72;;;1.52;;
74291;SDS011;62687;55.738;37.516;2022-09-09T15:58:25;9.85;;;1.33;;
74291;SDS011;62687;55.738;37.516;2022-09-09T16:01:09;7.72;;;1.73;;
74291;SDS011;62687;55.738;37.516;2022-09-09T16:03:57;8.68;;;1.40;;
74291;SDS011;62687;55.738;37.516;2022-09-09T16:06:45;6.32;;;2.00;;
74291;SDS011;62687;55.738;37.516;2022-09-09T16:09:30;9.82;;;1.75;;
74291;SDS011;62687;55.738;37.516;2022-09-09T16:12:15;5.32;;;1.30;;
74291;SDS011;62687;55.738;37.516;2022-09-09T16:15:00;14.02;;;1.70;;
74291;SDS011;62687;55.738;37.516;2022-09-09T16:17:44;13.82;;;3.65;;
74291;SDS011;62687;55.738;37.516;2022-09-09T16:20:30;7.10;;;1.80;;
74291;SDS011;62687;55.738;37.516;2022-09-09T16:23:14;8.20;;;1.92;;
74291;SDS011;62687;55.738;37.516;2022-09-09T16:25:58;5.50;;;1.38;;
74291;SDS011;62687;55.738;37.516;2022-09-09T16:28:42;8.75;;;1.70;;
74291;SDS011;62687;55.738;37.516;2022-09-09T16:31:27;8.43;;;1.90;;
74291;SDS011;62687;55.738;37.516;2022-09-09T16:34:13;9.93;;;1.60;;
74291;SDS011;62687;55.738;37.516;2022-09-09T16:36:59;12.45;;;1.80;;
74291;SDS011;62687;55.738;37.516;2022-09-09T16:39:45;8.70;;;2.30;;
74291;SDS011;62687;55.738;37.516;2022-09-09T16:42:29;12.63;;;3.20;;
74291;SDS011;62687;55.738;37.516;2022-09-09T16:45:13;10.27;;;2.20;;
74291;SDS011;62687;55.738;37.516;2022-09-09T16:47:58;7.50;;;2.17;;
74291;SDS011;62687;55.738;37.516;2022-09-09T16:50:43;12.23;;;2.47;;
74291;SDS011;62687;55.738;37.516;2022-09-09T16:53:28;13.82;;;3.25;;
74291;SDS011;62687;55.738;37.516;2022-09-09T16:56:22;9.70;;;2.47;;
74291;SDS011;62687;55.738;37.516;2022-09-09T16:59:11;11.02;;;2.83;;
74291;SDS011;62687;55.738;37.516;2022-09-09T17:01:57;9.75;;;2.92;;
74291;SDS011;62687;55.738;37.516;2022-09-09T17:04:41;13.75;;;3.33;;
74291;SDS011;62687;55.738;37.516;2022-09-09T17:07:25;12.88;;;3.38;;
74291;SDS011;62687;55.738;37.516;2022-09-09T17:12:55;14.52;;;3.67;;
74291;SDS011;62687;55.738;37.516;2022-09-09T17:15:40;7.88;;;2.88;;
74291;SDS011;62687;55.738;37.516;2022-09-09T17:18:28;12.77;;;6.40;;
74291;SDS011;62687;55.738;37.516;2022-09-09T17:21:13;30.20;;;6.75;;
74291;SDS011;62687;55.738;37.516;2022-09-09T17:23:59;19.80;;;6.07;;
74291;SDS011;62687;55.738;37.516;2022-09-09T17:26:43;21.33;;;4.85;;
74291;SDS011;62687;55.738;37.516;2022-09-09T17:29:28;27.80;;;5.50;;
74291;SDS011;62687;55.738;37.516;2022-09-09T17:32:12;19.25;;;5.22;;
74291;SDS011;62687;55.738;37.516;2022-09-09T17:34:56;30.45;;;7.93;;
74291;SDS011;62687;55.738;37.516;2022-09-09T17:37:41;26.38;;;6.10;;
74291;SDS011;62687;55.738;37.516;2022-09-09T17:40:25;33.13;;;8.70;;
74291;SDS011;62687;55.738;37.516;2022-09-09T17:43:09;39.92;;;11.38;;
74291;SDS011;62687;55.738;37.516;2022-09-09T17:45:53;29.35;;;10.48;;
74291;SDS011;62687;55.738;37.516;2022-09-09T17:48:38;28.15;;;9.43;;
74291;SDS011;62687;55.738;37.516;2022-09-09T17:51:25;17.50;;;7.55;;
74291;SDS011;62687;55.738;37.516;2022-09-09T17:54:14;23.63;;;7.40;;
74291;SDS011;62687;55.738;37.516;2022-09-09T17:57:00;23.52;;;5.30;;
74291;SDS011;62687;55.738;37.516;2022-09-09T17:59:44;17.70;;;5.63;;
74291;SDS011;62687;55.738;37.516;2022-09-09T18:02:28;20.45;;;6.50;;
74291;SDS011;62687;55.738;37.516;2022-09-09T18:05:12;23.10;;;7.53;;
74291;SDS011;62687;55.738;37.516;2022-09-09T18:07:57;19.08;;;5.63;;
74291;SDS011;62687;55.738;37.516;2022-09-09T18:10:41;15.30;;;4.57;;
74291;SDS011;62687;55.738;37.516;2022-09-09T18:13:30;21.58;;;6.80;;
74291;SDS011;62687;55.738;37.516;2022-09-09T18:16:15;14.23;;;4.32;;
74291;SDS011;62687;55.738;37.516;2022-09-09T18:19:02;14.10;;;3.90;;
74291;SDS011;62687;55.738;37.516;2022-09-09T18:21:48;21.08;;;3.22;;
74291;SDS011;62687;55.738;37.516;2022-09-09T18:24:32;15.00;;;3.20;;
74291;SDS011;62687;55.738;37.516;2022-09-09T18:27:16;13.68;;;3.42;;
74291;SDS011;62687;55.738;37.516;2022-09-09T18:30:01;16.05;;;3.65;;
74291;SDS011;62687;55.738;37.516;2022-09-09T18:32:47;10.55;;;3.33;;
74291;SDS011;62687;55.738;37.516;2022-09-09T18:35:34;12.30;;;3.55;;
74291;SDS011;62687;55.738;37.516;2022-09-09T18:38:18;21.52;;;3.95;;
74291;SDS011;62687;55.738;37.516;2022-09-09T18:44:08;11.02;;;2.88;;
74291;SDS011;62687;55.738;37.516;2022-09-09T18:46:56;12.70;;;2.78;;
74291;SDS011;62687;55.738;37.516;2022-09-09T18:49:40;8.27;;;2.75;;
74291;SDS011;62687;55.738;37.516;2022-09-09T18:52:24;15.88;;;4.13;;
74291;SDS011;62687;55.738;37.516;2022-09-09T18:55:09;14.20;;;3.42;;
74291;SDS011;62687;55.738;37.516;2022-09-09T18:57:54;9.00;;;3.60;;
74291;SDS011;62687;55.738;37.516;2022-09-09T19:00:44;8.95;;;3.53;;
74291;SDS011;62687;55.738;37.516;2022-09-09T19:03:29;12.32;;;3.42;;
74291;SDS011;62687;55.738;37.516;2022-09-09T19:06:14;17.98;;;3.90;;
74291;SDS011;62687;55.738;37.516;2022-09-09T19:09:00;10.40;;;3.80;;
74291;SDS011;62687;55.738;37.516;2022-09-09T19:11:44;11.07;;;3.17;;
74291;SDS011;62687;55.738;37.516;2022-09-09T19:14:29;13.75;;;5.15;;
74291;SDS011;62687;55.738;37.516;2022-09-09T19:17:13;11.18;;;4.18;;
74291;SDS011;62687;55.738;37.516;2022-09-09T19:19:57;12.88;;;3.80;;